createdAt,value
2023-01-20T00:01:48.496Z,30.48
2023-01-20T00:04:19.620Z,24.70
2023-01-20T00:06:48.216Z,22.73
2023-01-20T00:09:18.252Z,22.85
2023-01-20T00:11:47.063Z,26.65
2023-01-20T00:14:17.897Z,26.67
2023-01-20T00:16:46.083Z,23.98
2023-01-20T00:19:14.687Z,21.25
2023-01-20T00:21:43.399Z,21.00
2023-01-20T00:24:11.532Z,20.58
2023-01-20T00:26:39.712Z,24.00
2023-01-20T00:29:09.227Z,23.27
2023-01-20T00:31:38.314Z,29.58
2023-01-20T00:34:06.584Z,24.35
2023-01-20T00:36:35.442Z,27.40
2023-01-20T00:39:04.632Z,27.20
2023-01-20T00:41:33.004Z,23.50
2023-01-20T00:44:01.051Z,22.92
2023-01-20T00:46:29.337Z,23.13
2023-01-20T00:48:57.694Z,21.50
2023-01-20T00:51:25.790Z,28.67
2023-01-20T00:53:54.134Z,22.85
2023-01-20T00:56:22.278Z,23.45
2023-01-20T00:58:50.318Z,16.55
2023-01-20T01:01:18.757Z,19.20
2023-01-20T01:03:47.025Z,19.55
2023-01-20T01:06:17.950Z,18.08
2023-01-20T01:08:46.489Z,19.58
2023-01-20T01:11:15.015Z,19.15
2023-01-20T01:13:43.849Z,18.85
2023-01-20T01:16:14.791Z,20.55
2023-01-20T01:18:44.048Z,19.58
2023-01-20T01:21:17.236Z,25.17
2023-01-20T01:23:46.350Z,24.20
2023-01-20T01:26:14.625Z,23.40
2023-01-20T01:28:43.225Z,23.38
2023-01-20T01:31:11.669Z,24.30
2023-01-20T01:33:39.855Z,26.65
2023-01-20T01:36:12.333Z,24.92
2023-01-20T01:38:41.265Z,23.13
2023-01-20T01:41:18.227Z,19.80
2023-01-20T01:44:12.879Z,23.58
2023-01-20T01:46:42.593Z,25.30
2023-01-20T01:49:17.888Z,18.70
2023-01-20T01:51:56.220Z,22.85
2023-01-20T01:54:31.467Z,18.83
2023-01-20T01:57:01.091Z,25.33
2023-01-20T01:59:29.721Z,20.38
2023-01-20T02:01:58.470Z,22.80
2023-01-20T02:04:28.796Z,22.65
2023-01-20T02:07:06.644Z,23.23
2023-01-20T02:09:36.448Z,28.75
2023-01-20T02:12:11.261Z,20.02
2023-01-20T02:14:45.216Z,24.45
2023-01-20T02:17:31.912Z,28.73
2023-01-20T02:20:20.304Z,25.00
2023-01-20T02:23:09.557Z,26.63
2023-01-20T02:26:09.313Z,24.27
2023-01-20T02:29:08.003Z,26.42
2023-01-20T02:32:15.937Z,33.42
2023-01-20T02:34:58.826Z,26.50
2023-01-20T02:37:34.034Z,26.52
2023-01-20T02:40:49.391Z,28.98
2023-01-20T02:43:51.541Z,28.20
2023-01-20T02:49:27.584Z,20.60
2023-01-20T02:52:17.365Z,26.27
2023-01-20T02:54:50.567Z,31.20
2023-01-20T02:57:38.092Z,28.02
2023-01-20T03:00:17.087Z,23.70
2023-01-20T03:02:48.529Z,28.10
2023-01-20T03:05:36.152Z,28.13
2023-01-20T03:08:09.552Z,24.27
2023-01-20T03:10:43.991Z,26.67
2023-01-20T03:13:31.930Z,28.33
2023-01-20T03:16:06.445Z,26.40
2023-01-20T03:18:36.710Z,28.17
2023-01-20T03:21:08.202Z,25.70
2023-01-20T03:23:41.632Z,23.25
2023-01-20T03:26:13.587Z,21.30
2023-01-20T03:28:45.076Z,21.75
2023-01-20T03:31:24.645Z,13.00
2023-01-20T03:33:57.485Z,22.10
2023-01-20T03:36:29.089Z,21.02
2023-01-20T03:38:58.398Z,17.92
2023-01-20T03:41:55.032Z,19.30
2023-01-20T03:44:43.526Z,25.05
2023-01-20T03:47:36.490Z,18.92
2023-01-20T03:50:31.844Z,19.00
2023-01-20T03:53:15.615Z,22.60
2023-01-20T03:56:04.372Z,17.85
2023-01-20T03:58:40.257Z,19.85
2023-01-20T04:01:18.820Z,17.95
2023-01-20T04:03:53.075Z,25.30
2023-01-20T04:06:25.508Z,24.10
2023-01-20T04:09:00.861Z,21.80
2023-01-20T04:11:30.048Z,23.80
2023-01-20T04:13:58.490Z,23.85
2023-01-20T04:16:27.716Z,20.70
2023-01-20T04:18:57.642Z,24.17
2023-01-20T04:21:39.950Z,20.63
2023-01-20T04:24:33.327Z,20.45
2023-01-20T04:27:10.771Z,21.67
2023-01-20T04:29:41.571Z,23.98
2023-01-20T04:32:12.254Z,26.50
2023-01-20T04:34:40.342Z,27.50
2023-01-20T04:37:08.212Z,25.52
2023-01-20T04:39:36.455Z,24.75
2023-01-20T04:42:05.589Z,25.48
2023-01-20T04:44:34.025Z,25.98
2023-01-20T04:47:01.961Z,26.45
2023-01-20T04:49:30.621Z,22.00
2023-01-20T04:51:58.509Z,23.70
2023-01-20T04:54:27.034Z,24.67
2023-01-20T04:56:55.675Z,23.30
2023-01-20T04:59:25.416Z,26.20
2023-01-20T05:01:54.149Z,24.42
2023-01-20T05:04:24.336Z,26.15
2023-01-20T05:06:52.327Z,24.50
2023-01-20T05:09:20.535Z,25.55
2023-01-20T05:11:49.379Z,19.55
2023-01-20T05:14:17.954Z,22.13
2023-01-20T05:16:47.204Z,19.98
2023-01-20T05:19:15.850Z,24.17
2023-01-20T05:21:43.882Z,23.50
2023-01-20T05:24:12.497Z,23.40
2023-01-20T05:26:41.169Z,20.80
2023-01-20T05:29:09.935Z,21.45
2023-01-20T05:31:43.663Z,24.13
2023-01-20T05:34:12.346Z,23.30
2023-01-20T05:36:41.063Z,20.58
2023-01-20T05:39:09.192Z,21.48
2023-01-20T05:41:41.182Z,22.05
2023-01-20T05:44:09.381Z,24.75
2023-01-20T05:46:37.850Z,22.90
2023-01-20T05:49:05.925Z,21.35
2023-01-20T05:51:33.829Z,22.42
2023-01-20T05:54:05.144Z,23.67
2023-01-20T05:56:33.364Z,21.95
2023-01-20T05:59:01.252Z,20.60
2023-01-20T06:01:30.098Z,23.92
2023-01-20T06:03:58.695Z,23.73
2023-01-20T06:06:27.389Z,26.25
2023-01-20T06:08:56.392Z,24.13
2023-01-20T06:11:24.857Z,24.67
2023-01-20T06:13:52.836Z,22.88
2023-01-20T06:16:21.869Z,26.05
2023-01-20T06:18:49.827Z,21.10
2023-01-20T06:21:18.152Z,21.17
2023-01-20T06:23:46.659Z,23.65
2023-01-20T06:26:15.586Z,27.05
2023-01-20T06:28:43.666Z,33.65
2023-01-20T06:31:17.204Z,36.20
2023-01-20T06:33:45.774Z,30.42
2023-01-20T06:36:17.036Z,28.00
2023-01-20T06:38:50.654Z,23.80
2023-01-20T06:41:20.718Z,36.22
2023-01-20T06:43:50.356Z,31.55
2023-01-20T06:46:18.683Z,28.92
2023-01-20T06:48:47.242Z,31.27
2023-01-20T06:51:24.541Z,38.53
2023-01-20T06:53:53.179Z,31.10
2023-01-20T06:56:22.102Z,42.78
2023-01-20T06:58:50.251Z,50.08
2023-01-20T07:01:29.742Z,51.13
2023-01-20T07:03:58.276Z,70.88
2023-01-20T07:06:31.303Z,71.45
2023-01-20T07:09:01.617Z,56.35
2023-01-20T07:11:31.498Z,56.97
2023-01-20T07:14:01.590Z,52.60
2023-01-20T07:16:30.206Z,67.53
2023-01-20T07:18:58.721Z,43.80
2023-01-20T07:21:27.289Z,41.58
2023-01-20T07:23:56.404Z,45.65
2023-01-20T07:26:26.716Z,45.92
2023-01-20T07:28:55.131Z,69.78
2023-01-20T07:31:26.613Z,51.42
2023-01-20T07:33:58.417Z,51.40
2023-01-20T07:38:55.230Z,43.83
2023-01-20T07:41:23.879Z,47.83
2023-01-20T07:43:53.790Z,41.38
2023-01-20T07:46:22.682Z,39.67
2023-01-20T07:48:50.803Z,42.30
2023-01-20T07:51:19.453Z,38.75
2023-01-20T07:53:52.515Z,40.60
2023-01-20T07:56:26.001Z,41.83
2023-01-20T07:58:56.273Z,53.80
2023-01-20T08:01:32.221Z,42.92
2023-01-20T08:04:01.211Z,52.53
2023-01-20T08:06:30.617Z,47.50
2023-01-20T08:09:02.317Z,40.55
2023-01-20T08:14:00.419Z,26.92
2023-01-20T08:16:28.932Z,39.67
2023-01-20T08:18:57.180Z,39.22
2023-01-20T08:21:31.602Z,45.72
2023-01-20T08:24:02.832Z,44.03
2023-01-20T08:26:35.618Z,42.42
2023-01-20T08:29:10.420Z,38.20
2023-01-20T08:31:39.878Z,32.97
2023-01-20T08:34:08.064Z,33.80
2023-01-20T08:36:40.290Z,35.55
2023-01-20T08:39:14.197Z,38.25
2023-01-20T08:41:44.361Z,33.03
2023-01-20T08:44:12.909Z,36.22
2023-01-20T08:46:42.322Z,40.30
2023-01-20T08:49:17.988Z,40.92
2023-01-20T08:51:46.258Z,34.28
2023-01-20T08:54:15.754Z,38.10
2023-01-20T08:56:44.213Z,36.55
2023-01-20T08:59:13.039Z,32.90
2023-01-20T09:01:43.274Z,33.95
2023-01-20T09:04:11.737Z,40.08
2023-01-20T09:06:49.080Z,34.75
2023-01-20T09:09:22.755Z,39.25
2023-01-20T09:11:51.685Z,37.13
2023-01-20T09:14:24.878Z,37.20
2023-01-20T09:16:53.145Z,40.58
2023-01-20T09:19:21.315Z,40.45
2023-01-20T09:21:49.845Z,37.03
2023-01-20T09:24:17.918Z,39.33
2023-01-20T09:26:47.400Z,37.38
2023-01-20T09:29:19.804Z,36.30
2023-01-20T09:31:58.373Z,31.80
2023-01-20T09:34:29.873Z,31.38
2023-01-20T09:37:21.693Z,30.40
2023-01-20T09:40:08.754Z,26.10
2023-01-20T09:43:07.608Z,30.13
2023-01-20T09:46:09.385Z,23.83
2023-01-20T09:49:23.258Z,24.88
2023-01-20T09:52:41.971Z,29.23
2023-01-20T09:55:30.703Z,26.45
2023-01-20T09:58:37.468Z,26.05
2023-01-20T10:01:21.757Z,29.92
2023-01-20T10:04:06.139Z,27.40
2023-01-20T10:07:07.583Z,29.52
2023-01-20T10:09:56.381Z,23.58
2023-01-20T10:12:47.940Z,28.35
2023-01-20T10:15:33.229Z,23.40
2023-01-20T10:18:34.010Z,27.85
2023-01-20T10:21:46.937Z,21.33
2023-01-20T10:24:53.105Z,22.90
2023-01-20T10:27:24.533Z,21.83
2023-01-20T10:30:16.130Z,24.45
2023-01-20T10:32:55.159Z,23.45
2023-01-20T10:35:31.286Z,21.50
2023-01-20T10:38:00.118Z,26.73
2023-01-20T10:40:47.974Z,26.05
2023-01-20T10:43:17.956Z,28.25
2023-01-20T10:46:17.550Z,21.80
2023-01-20T10:48:54.590Z,27.15
2023-01-20T10:52:10.613Z,24.15
2023-01-20T10:54:53.349Z,23.33
2023-01-20T10:57:21.940Z,30.23
2023-01-20T10:59:55.178Z,22.20
2023-01-20T11:02:32.168Z,23.75
2023-01-20T11:05:10.334Z,22.27
2023-01-20T11:07:38.600Z,30.27
2023-01-20T11:10:22.496Z,26.25
2023-01-20T11:12:55.517Z,26.77
2023-01-20T11:15:33.910Z,23.77
2023-01-20T11:18:16.447Z,24.05
2023-01-20T11:21:08.556Z,20.98
2023-01-20T11:23:57.671Z,21.63
2023-01-20T11:26:36.003Z,28.85
2023-01-20T11:29:10.224Z,28.48
2023-01-20T11:31:55.098Z,31.80
2023-01-20T11:34:36.501Z,28.20
2023-01-20T11:37:10.870Z,30.90
2023-01-20T11:39:51.806Z,27.25
2023-01-20T11:42:27.715Z,29.43
2023-01-20T11:45:19.744Z,24.83
2023-01-20T11:48:06.283Z,22.73
2023-01-20T11:50:40.492Z,30.30
2023-01-20T11:53:23.414Z,29.73
2023-01-20T11:56:01.488Z,32.70
2023-01-20T11:58:49.190Z,30.90
2023-01-20T12:02:20.130Z,30.23
2023-01-20T12:05:16.579Z,30.23
2023-01-20T12:07:51.611Z,33.03
2023-01-20T12:10:30.056Z,31.60
2023-01-20T12:14:00.895Z,28.30
2023-01-20T12:16:32.542Z,27.40
2023-01-20T12:19:09.946Z,28.88
2023-01-20T12:21:47.939Z,28.55
2023-01-20T12:25:09.615Z,24.83
2023-01-20T12:27:48.739Z,23.50
2023-01-20T12:31:01.559Z,28.75
2023-01-20T12:33:40.745Z,27.80
2023-01-20T12:36:38.066Z,26.98
2023-01-20T12:39:46.473Z,27.00
2023-01-20T12:42:42.291Z,28.35
2023-01-20T12:45:28.149Z,25.35
2023-01-20T12:48:36.991Z,27.45
2023-01-20T12:51:22.842Z,22.88
2023-01-20T12:54:47.172Z,24.30
2023-01-20T12:57:44.229Z,25.27
2023-01-20T13:00:37.621Z,27.30
2023-01-20T13:03:33.375Z,25.50
2023-01-20T13:06:42.623Z,31.75
2023-01-20T13:09:19.539Z,34.55
2023-01-20T13:12:29.708Z,35.28
2023-01-20T13:15:20.095Z,29.55
2023-01-20T13:18:24.958Z,30.23
2023-01-20T13:20:55.095Z,27.98
2023-01-20T13:23:32.343Z,29.40
2023-01-20T13:26:03.865Z,33.25
2023-01-20T13:28:32.460Z,27.73
2023-01-20T13:31:22.762Z,25.90
2023-01-20T13:33:50.852Z,29.52
2023-01-20T13:36:21.181Z,23.20
2023-01-20T13:39:11.554Z,24.00
2023-01-20T13:41:52.423Z,21.95
2023-01-20T13:44:42.404Z,23.73
2023-01-20T13:47:12.350Z,25.80
2023-01-20T13:49:54.935Z,28.83
2023-01-20T13:52:51.044Z,28.05
2023-01-20T13:55:51.295Z,24.55
2023-01-20T13:58:36.198Z,29.85
2023-01-20T14:01:10.744Z,26.85
2023-01-20T14:03:40.268Z,33.63
2023-01-20T14:06:21.521Z,31.92
2023-01-20T14:08:51.747Z,28.45
2023-01-20T14:11:25.020Z,28.98
2023-01-20T14:13:54.590Z,31.38
2023-01-20T14:16:36.969Z,31.05
2023-01-20T14:19:35.137Z,28.90
2023-01-20T14:22:19.306Z,29.40
2023-01-20T14:24:50.122Z,29.25
2023-01-20T14:27:29.985Z,26.77
2023-01-20T14:30:20.357Z,27.25
2023-01-20T14:32:49.356Z,26.42
2023-01-20T14:35:34.668Z,25.67
2023-01-20T14:38:03.604Z,26.15
2023-01-20T14:40:37.795Z,25.10
2023-01-20T14:43:20.499Z,25.30
2023-01-20T14:45:52.327Z,17.92
2023-01-20T14:48:34.085Z,22.90
2023-01-20T14:51:04.556Z,18.20
2023-01-20T14:53:33.287Z,22.95
2023-01-20T14:56:07.977Z,22.60
2023-01-20T14:58:44.331Z,25.58
2023-01-20T15:01:23.681Z,34.08
2023-01-20T15:04:02.289Z,32.53
2023-01-20T15:06:30.696Z,32.88
2023-01-20T15:09:06.585Z,35.60
2023-01-20T15:11:38.547Z,33.67
2023-01-20T15:14:09.078Z,30.52
2023-01-20T15:16:38.912Z,26.65
2023-01-20T15:19:23.214Z,29.20
2023-01-20T15:21:54.438Z,20.77
2023-01-20T15:24:31.837Z,22.83
2023-01-20T15:27:03.049Z,24.02
2023-01-20T15:29:37.102Z,23.90
2023-01-20T15:32:12.978Z,20.80
2023-01-20T15:34:42.641Z,23.42
2023-01-20T15:37:19.031Z,22.52
2023-01-20T15:39:48.001Z,23.45
2023-01-20T15:42:19.291Z,25.27
2023-01-20T15:44:48.867Z,29.05
2023-01-20T15:47:27.451Z,25.85
2023-01-20T15:49:55.844Z,27.42
2023-01-20T15:52:25.170Z,29.52
2023-01-20T15:54:53.649Z,29.02
2023-01-20T15:57:22.394Z,26.77
2023-01-20T15:59:50.514Z,25.65
2023-01-20T16:02:22.705Z,29.92
2023-01-20T16:04:51.387Z,23.63
2023-01-20T16:07:21.434Z,23.27
2023-01-20T16:09:49.808Z,25.38
2023-01-20T16:12:19.196Z,30.92
2023-01-20T16:14:47.698Z,23.90
2023-01-20T16:17:21.149Z,27.50
2023-01-20T16:19:50.566Z,25.80
2023-01-20T16:22:19.192Z,22.48
2023-01-20T16:24:49.502Z,21.67
2023-01-20T16:27:23.860Z,22.75
2023-01-20T16:29:53.350Z,28.25
2023-01-20T16:32:22.563Z,29.00
2023-01-20T16:34:51.054Z,21.67
2023-01-20T16:37:19.446Z,22.73
2023-01-20T16:39:47.987Z,23.25
2023-01-20T16:42:21.052Z,23.05
2023-01-20T16:44:49.718Z,18.65
2023-01-20T16:47:17.957Z,20.02
2023-01-20T16:49:46.832Z,20.05
2023-01-20T16:52:15.492Z,18.73
2023-01-20T16:54:43.889Z,17.23
2023-01-20T16:57:12.247Z,15.75
2023-01-20T16:59:40.397Z,19.00
2023-01-20T17:02:11.385Z,18.92
2023-01-20T17:04:40.127Z,17.17
2023-01-20T17:07:08.430Z,21.77
2023-01-20T17:09:39.427Z,20.30
2023-01-20T17:12:08.423Z,19.00
2023-01-20T17:14:36.882Z,17.27
2023-01-20T17:17:05.342Z,15.27
2023-01-20T17:19:34.160Z,18.08
2023-01-20T17:22:02.466Z,16.33
2023-01-20T17:24:30.703Z,14.45
2023-01-20T17:27:00.197Z,12.95
2023-01-20T17:29:29.163Z,13.70
2023-01-20T17:31:57.930Z,16.48
2023-01-20T17:34:27.370Z,13.75
2023-01-20T17:36:57.086Z,16.60
2023-01-20T17:39:25.248Z,14.27
2023-01-20T17:41:53.999Z,14.43
2023-01-20T17:44:22.526Z,12.55
2023-01-20T17:46:51.028Z,11.85
2023-01-20T17:49:23.757Z,15.48
2023-01-20T17:51:52.115Z,15.30
2023-01-20T17:54:20.830Z,15.35
2023-01-20T17:56:49.403Z,15.25
2023-01-20T17:59:17.735Z,15.48
2023-01-20T18:01:45.925Z,15.02
2023-01-20T18:04:15.826Z,12.82
2023-01-20T18:06:44.327Z,16.42
2023-01-20T18:09:14.950Z,16.58
2023-01-20T18:11:44.253Z,15.38
2023-01-20T18:14:13.308Z,14.48
2023-01-20T18:16:42.069Z,15.95
2023-01-20T18:19:14.771Z,16.60
2023-01-20T18:21:44.519Z,17.20
2023-01-20T18:24:13.699Z,15.45
2023-01-20T18:26:45.035Z,17.02
2023-01-20T18:29:20.135Z,14.90
2023-01-20T18:31:51.848Z,19.58
2023-01-20T18:34:22.376Z,19.20
2023-01-20T18:36:51.932Z,19.42
2023-01-20T18:39:24.615Z,22.98
2023-01-20T18:41:53.113Z,20.67
2023-01-20T18:44:23.719Z,24.88
2023-01-20T18:46:53.172Z,24.20
2023-01-20T18:49:22.037Z,26.10
2023-01-20T18:51:51.489Z,28.70
2023-01-20T18:54:25.797Z,35.05
2023-01-20T18:56:54.190Z,37.83
2023-01-20T18:59:23.153Z,29.63
2023-01-20T19:01:52.075Z,35.25
2023-01-20T19:04:23.163Z,33.65
2023-01-20T19:06:51.767Z,27.60
2023-01-20T19:09:20.357Z,37.75
2023-01-20T19:11:49.088Z,36.17
2023-01-20T19:14:18.446Z,29.15
2023-01-20T19:16:49.907Z,28.40
2023-01-20T19:19:19.256Z,27.67
2023-01-20T19:21:52.465Z,30.38
2023-01-20T19:24:21.755Z,31.90
2023-01-20T19:26:50.303Z,30.02
2023-01-20T19:29:20.069Z,32.42
2023-01-20T19:31:49.410Z,24.42
2023-01-20T19:34:18.359Z,26.17
2023-01-20T19:36:47.080Z,25.90
2023-01-20T19:39:16.731Z,26.92
2023-01-20T19:41:45.817Z,25.35
2023-01-20T19:44:15.936Z,31.35
2023-01-20T19:46:45.129Z,27.00
2023-01-20T19:49:13.979Z,19.92
2023-01-20T19:51:42.140Z,20.35
2023-01-20T19:54:14.467Z,23.35
2023-01-20T19:56:43.910Z,19.45
2023-01-20T19:59:14.132Z,22.48
2023-01-20T20:01:43.005Z,25.55
2023-01-20T20:04:14.400Z,20.80
2023-01-20T20:06:47.749Z,17.67
2023-01-20T20:09:20.966Z,17.92
2023-01-20T20:11:51.070Z,14.90
2023-01-20T20:14:22.417Z,15.40
2023-01-20T20:16:51.544Z,14.75
2023-01-20T20:19:20.635Z,15.77
2023-01-20T20:21:50.290Z,14.77
2023-01-20T20:24:19.532Z,12.85
2023-01-20T20:26:48.147Z,12.63
2023-01-20T20:29:19.425Z,10.65
2023-01-20T20:31:48.302Z,10.35
2023-01-20T20:34:19.379Z,11.45
2023-01-20T20:36:48.411Z,14.18
2023-01-20T20:39:19.273Z,11.57
2023-01-20T20:41:48.264Z,11.07
2023-01-20T20:44:18.535Z,11.35
2023-01-20T20:46:49.090Z,10.93
2023-01-20T20:49:21.834Z,11.57
2023-01-20T20:51:50.947Z,12.63
2023-01-20T20:54:20.983Z,11.88
2023-01-20T20:56:50.139Z,14.32
2023-01-20T20:59:23.481Z,12.00
2023-01-20T21:01:53.657Z,10.75
2023-01-20T21:04:23.105Z,9.68
2023-01-20T21:06:52.568Z,12.98
2023-01-20T21:09:21.340Z,9.40
2023-01-20T21:11:50.234Z,9.02
2023-01-20T21:14:21.633Z,8.35
2023-01-20T21:16:50.683Z,8.98
2023-01-20T21:19:19.709Z,10.50
2023-01-20T21:21:47.881Z,11.50
2023-01-20T21:24:17.312Z,7.63
2023-01-20T21:26:47.108Z,9.45
2023-01-20T21:29:15.689Z,7.82
2023-01-20T21:31:43.953Z,9.15
2023-01-20T21:34:15.423Z,8.35
2023-01-20T21:36:44.228Z,7.68
2023-01-20T21:39:16.802Z,12.35
2023-01-20T21:41:46.901Z,7.72
2023-01-20T21:44:39.293Z,8.10
2023-01-20T21:47:08.412Z,9.43
2023-01-20T21:49:56.377Z,11.20
2023-01-20T21:52:45.634Z,8.23
2023-01-20T21:55:20.216Z,9.65
2023-01-20T21:57:51.435Z,9.57
2023-01-20T22:00:22.425Z,10.45
2023-01-20T22:02:50.654Z,7.28
2023-01-20T22:05:19.171Z,12.13
2023-01-20T22:07:48.719Z,8.73
2023-01-20T22:10:18.099Z,9.70
2023-01-20T22:12:46.677Z,7.60
2023-01-20T22:15:15.533Z,11.10
2023-01-20T22:17:44.299Z,12.38
2023-01-20T22:20:12.975Z,7.13
2023-01-20T22:22:41.464Z,7.43
2023-01-20T22:25:10.307Z,7.53
2023-01-20T22:27:38.525Z,9.10
2023-01-20T22:30:09.721Z,8.07
2023-01-20T22:32:38.698Z,9.07
2023-01-20T22:35:08.565Z,13.52
2023-01-20T22:37:37.657Z,8.38
2023-01-20T22:40:06.451Z,7.85
2023-01-20T22:42:35.088Z,8.00
2023-01-20T22:45:04.181Z,9.23
2023-01-20T22:47:33.835Z,6.50
2023-01-20T22:50:02.896Z,10.35
2023-01-20T22:52:31.893Z,6.28
2023-01-20T22:55:00.553Z,8.63
2023-01-20T22:57:31.034Z,6.72
2023-01-20T22:59:59.718Z,8.63
2023-01-20T23:02:28.170Z,8.07
2023-01-20T23:04:56.311Z,9.32
2023-01-20T23:07:24.697Z,6.78
2023-01-20T23:09:53.874Z,7.13
2023-01-20T23:12:22.288Z,6.32
2023-01-20T23:15:00.458Z,6.20
2023-01-20T23:17:31.486Z,6.25
2023-01-20T23:20:00.125Z,5.88
2023-01-20T23:22:30.355Z,5.07
2023-01-20T23:24:58.602Z,5.88
2023-01-20T23:27:26.727Z,5.65
2023-01-20T23:29:56.122Z,5.30
2023-01-20T23:32:24.732Z,5.78
2023-01-20T23:34:52.801Z,5.22
2023-01-20T23:37:21.407Z,6.05
2023-01-20T23:39:52.735Z,6.72
2023-01-20T23:42:21.271Z,5.10
2023-01-20T23:44:49.703Z,6.53
2023-01-20T23:47:17.982Z,5.57
2023-01-20T23:49:46.503Z,4.85
2023-01-20T23:52:14.979Z,3.78
2023-01-20T23:54:43.311Z,5.15
2023-01-20T23:57:11.524Z,5.22
2023-01-20T23:59:40.037Z,6.38
